sensor_id;sensor_type;location;lat;lon;timestamp;P1;durP1;ratioP1;P2;durP2;ratioP2
55350;SDS011;62194;49.480;10.986;2024-03-08T00:00:02;26.27;;;15.37;;
55350;SDS011;62194;49.480;10.986;2024-03-08T00:00:15;23.47;;;15.13;;
55350;SDS011;62194;49.480;10.986;2024-03-08T00:00:23;23.27;;;15.14;;
55350;SDS011;62194;49.480;10.986;2024-03-08T00:00:28;23.23;;;14.95;;
55350;SDS011;62194;49.480;10.986;2024-03-08T00:00:34;23.83;;;14.80;;
55350;SDS011;62194;49.480;10.986;2024-03-08T00:00:39;24.08;;;14.52;;
55350;SDS011;62194;49.480;10.986;2024-03-08T00:00:47;23.83;;;14.50;;
55350;SDS011;62194;49.480;10.986;2024-03-08T00:00:52;23.97;;;14.37;;
55350;SDS011;62194;49.480;10.986;2024-03-08T00:00:57;23.50;;;14.53;;
55350;SDS011;62194;49.480;10.986;2024-03-08T00:01:03;22.97;;;14.70;;
55350;SDS011;62194;49.480;10.986;2024-03-08T00:01:08;22.75;;;14.80;;
55350;SDS011;62194;49.480;10.986;2024-03-08T00:01:13;23.13;;;14.90;;
55350;SDS011;62194;49.480;10.986;2024-03-08T00:01:19;23.00;;;14.93;;
55350;SDS011;62194;49.480;10.986;2024-03-08T00:01:24;22.80;;;14.85;;
55350;SDS011;62194;49.480;10.986;2024-03-08T00:01:29;23.30;;;14.87;;
55350;SDS011;62194;49.480;10.986;2024-03-08T00:01:35;23.43;;;14.70;;
55350;SDS011;62194;49.480;10.986;2024-03-08T00:01:40;24.27;;;14.88;;
55350;SDS011;62194;49.480;10.986;2024-03-08T00:01:46;24.53;;;15.03;;
55350;SDS011;62194;49.480;10.986;2024-03-08T00:01:51;24.48;;;15.23;;
55350;SDS011;62194;49.480;10.986;2024-03-08T00:01:57;24.50;;;15.17;;
55350;SDS011;62194;49.480;10.986;2024-03-08T00:02:02;23.67;;;15.02;;
55350;SDS011;62194;49.480;10.986;2024-03-08T00:02:07;23.60;;;15.10;;
55350;SDS011;62194;49.480;10.986;2024-03-08T00:02:13;22.90;;;15.07;;
55350;SDS011;62194;49.480;10.986;2024-03-08T00:02:18;23.13;;;15.10;;
55350;SDS011;62194;49.480;10.986;2024-03-08T00:02:24;24.77;;;15.82;;
55350;SDS011;62194;49.480;10.986;2024-03-08T00:02:29;25.70;;;16.30;;
55350;SDS011;62194;49.480;10.986;2024-03-08T00:02:36;25.67;;;16.33;;
55350;SDS011;62194;49.480;10.986;2024-03-08T00:02:42;25.50;;;16.10;;
55350;SDS011;62194;49.480;10.986;2024-03-08T00:02:47;25.08;;;15.85;;
55350;SDS011;62194;49.480;10.986;2024-03-08T00:02:55;23.73;;;15.13;;
55350;SDS011;62194;49.480;10.986;2024-03-08T00:03:00;23.73;;;15.27;;
55350;SDS011;62194;49.480;10.986;2024-03-08T00:03:07;23.42;;;15.08;;
55350;SDS011;62194;49.480;10.986;2024-03-08T00:03:12;23.30;;;15.00;;
55350;SDS011;62194;49.480;10.986;2024-03-08T00:03:17;23.23;;;14.87;;
55350;SDS011;62194;49.480;10.986;2024-03-08T00:03:23;23.20;;;14.68;;
55350;SDS011;62194;49.480;10.986;2024-03-08T00:03:28;23.40;;;14.60;;
55350;SDS011;62194;49.480;10.986;2024-03-08T00:03:34;23.33;;;14.88;;
55350;SDS011;62194;49.480;10.986;2024-03-08T00:03:39;24.13;;;15.13;;
55350;SDS011;62194;49.480;10.986;2024-03-08T00:03:45;23.83;;;15.18;;
55350;SDS011;62194;49.480;10.986;2024-03-08T00:03:50;24.17;;;15.23;;
55350;SDS011;62194;49.480;10.986;2024-03-08T00:03:57;23.63;;;15.10;;
55350;SDS011;62194;49.480;10.986;2024-03-08T00:04:02;23.77;;;14.97;;
55350;SDS011;62194;49.480;10.986;2024-03-08T00:04:08;24.05;;;14.85;;
55350;SDS011;62194;49.480;10.986;2024-03-08T00:04:13;24.13;;;15.00;;
55350;SDS011;62194;49.480;10.986;2024-03-08T00:04:20;24.42;;;15.26;;
55350;SDS011;62194;49.480;10.986;2024-03-08T00:04:25;24.27;;;15.30;;
55350;SDS011;62194;49.480;10.986;2024-03-08T00:04:30;24.60;;;15.25;;
55350;SDS011;62194;49.480;10.986;2024-03-08T00:04:36;24.53;;;15.33;;
55350;SDS011;62194;49.480;10.986;2024-03-08T00:04:41;24.70;;;15.40;;
55350;SDS011;62194;49.480;10.986;2024-03-08T00:04:47;25.42;;;15.57;;
55350;SDS011;62194;49.480;10.986;2024-03-08T00:04:52;25.97;;;15.83;;
55350;SDS011;62194;49.480;10.986;2024-03-08T00:04:57;26.77;;;16.17;;
55350;SDS011;62194;49.480;10.986;2024-03-08T00:05:03;27.37;;;16.13;;
55350;SDS011;62194;49.480;10.986;2024-03-08T00:05:09;27.88;;;16.20;;
55350;SDS011;62194;49.480;10.986;2024-03-08T00:05:15;27.50;;;16.02;;
55350;SDS011;62194;49.480;10.986;2024-03-08T00:05:21;26.50;;;15.83;;
55350;SDS011;62194;49.480;10.986;2024-03-08T00:05:26;26.17;;;15.63;;
55350;SDS011;62194;49.480;10.986;2024-03-08T00:05:31;25.05;;;15.73;;
55350;SDS011;62194;49.480;10.986;2024-03-08T00:05:37;24.50;;;15.70;;
55350;SDS011;62194;49.480;10.986;2024-03-08T00:05:43;24.07;;;15.50;;
55350;SDS011;62194;49.480;10.986;2024-03-08T00:05:48;23.40;;;15.20;;
55350;SDS011;62194;49.480;10.986;2024-03-08T00:05:54;23.47;;;15.30;;
55350;SDS011;62194;49.480;10.986;2024-03-08T00:06:00;23.40;;;15.18;;
55350;SDS011;62194;49.480;10.986;2024-03-08T00:06:05;23.40;;;15.50;;
55350;SDS011;62194;49.480;10.986;2024-03-08T00:06:11;23.83;;;15.77;;
55350;SDS011;62194;49.480;10.986;2024-03-08T00:06:16;23.73;;;15.60;;
55350;SDS011;62194;49.480;10.986;2024-03-08T00:06:21;24.17;;;15.70;;
55350;SDS011;62194;49.480;10.986;2024-03-08T00:06:26;24.13;;;15.57;;
55350;SDS011;62194;49.480;10.986;2024-03-08T00:06:32;24.23;;;15.63;;
55350;SDS011;62194;49.480;10.986;2024-03-08T00:06:37;23.58;;;15.32;;
55350;SDS011;62194;49.480;10.986;2024-03-08T00:06:42;23.70;;;15.13;;
55350;SDS011;62194;49.480;10.986;2024-03-08T00:06:50;23.75;;;15.13;;
55350;SDS011;62194;49.480;10.986;2024-03-08T00:06:56;24.00;;;15.27;;
55350;SDS011;62194;49.480;10.986;2024-03-08T00:07:01;25.02;;;15.38;;
55350;SDS011;62194;49.480;10.986;2024-03-08T00:07:06;25.43;;;15.37;;
55350;SDS011;62194;49.480;10.986;2024-03-08T00:07:12;25.57;;;15.83;;
55350;SDS011;62194;49.480;10.986;2024-03-08T00:07:18;25.53;;;16.03;;
55350;SDS011;62194;49.480;10.986;2024-03-08T00:07:23;25.97;;;16.20;;
55350;SDS011;62194;49.480;10.986;2024-03-08T00:07:28;25.57;;;15.97;;
55350;SDS011;62194;49.480;10.986;2024-03-08T00:07:37;25.87;;;16.13;;
55350;SDS011;62194;49.480;10.986;2024-03-08T00:07:43;26.23;;;16.04;;
55350;SDS011;62194;49.480;10.986;2024-03-08T00:07:48;27.27;;;16.03;;
55350;SDS011;62194;49.480;10.986;2024-03-08T00:07:54;27.63;;;15.83;;
55350;SDS011;62194;49.480;10.986;2024-03-08T00:07:59;26.83;;;15.73;;
55350;SDS011;62194;49.480;10.986;2024-03-08T00:08:05;26.33;;;15.70;;
55350;SDS011;62194;49.480;10.986;2024-03-08T00:08:14;25.32;;;15.33;;
55350;SDS011;62194;49.480;10.986;2024-03-08T00:08:20;24.05;;;15.18;;
55350;SDS011;62194;49.480;10.986;2024-03-08T00:08:25;23.80;;;15.30;;
55350;SDS011;62194;49.480;10.986;2024-03-08T00:08:30;24.70;;;15.53;;
55350;SDS011;62194;49.480;10.986;2024-03-08T00:08:36;25.25;;;15.60;;
55350;SDS011;62194;49.480;10.986;2024-03-08T00:08:41;26.47;;;15.70;;
55350;SDS011;62194;49.480;10.986;2024-03-08T00:08:46;26.87;;;15.57;;
55350;SDS011;62194;49.480;10.986;2024-03-08T00:08:52;27.77;;;15.85;;
55350;SDS011;62194;49.480;10.986;2024-03-08T00:08:57;27.57;;;15.90;;
55350;SDS011;62194;49.480;10.986;2024-03-08T00:09:02;26.83;;;15.53;;
55350;SDS011;62194;49.480;10.986;2024-03-08T00:09:08;26.17;;;15.73;;
55350;SDS011;62194;49.480;10.986;2024-03-08T00:09:13;25.20;;;15.87;;
55350;SDS011;62194;49.480;10.986;2024-03-08T00:09:19;24.50;;;15.73;;
55350;SDS011;62194;49.480;10.986;2024-03-08T00:09:24;24.90;;;16.00;;
55350;SDS011;62194;49.480;10.986;2024-03-08T00:09:29;24.70;;;16.00;;
55350;SDS011;62194;49.480;10.986;2024-03-08T00:09:35;24.87;;;15.70;;
55350;SDS011;62194;49.480;10.986;2024-03-08T00:09:41;25.52;;;15.52;;
55350;SDS011;62194;49.480;10.986;2024-03-08T00:09:46;25.80;;;15.50;;
55350;SDS011;62194;49.480;10.986;2024-03-08T00:09:52;25.94;;;15.38;;
55350;SDS011;62194;49.480;10.986;2024-03-08T00:09:58;26.23;;;15.17;;
55350;SDS011;62194;49.480;10.986;2024-03-08T00:10:04;26.80;;;15.35;;
55350;SDS011;62194;49.480;10.986;2024-03-08T00:10:10;26.17;;;15.55;;
55350;SDS011;62194;49.480;10.986;2024-03-08T00:10:16;26.80;;;15.67;;
55350;SDS011;62194;49.480;10.986;2024-03-08T00:10:23;26.63;;;15.83;;
55350;SDS011;62194;49.480;10.986;2024-03-08T00:10:28;26.63;;;15.80;;
55350;SDS011;62194;49.480;10.986;2024-03-08T00:10:33;26.05;;;15.88;;
55350;SDS011;62194;49.480;10.986;2024-03-08T00:10:39;26.17;;;15.77;;
55350;SDS011;62194;49.480;10.986;2024-03-08T00:10:44;25.67;;;15.93;;
55350;SDS011;62194;49.480;10.986;2024-03-08T00:10:49;25.20;;;15.93;;
55350;SDS011;62194;49.480;10.986;2024-03-08T00:10:55;24.07;;;15.70;;
55350;SDS011;62194;49.480;10.986;2024-03-08T00:11:00;24.90;;;15.57;;
55350;SDS011;62194;49.480;10.986;2024-03-08T00:11:05;25.00;;;15.50;;
55350;SDS011;62194;49.480;10.986;2024-03-08T00:11:11;25.73;;;15.40;;
55350;SDS011;62194;49.480;10.986;2024-03-08T00:11:16;26.73;;;15.53;;
55350;SDS011;62194;49.480;10.986;2024-03-08T00:11:21;27.67;;;15.53;;
55350;SDS011;62194;49.480;10.986;2024-03-08T00:11:26;29.90;;;15.68;;
55350;SDS011;62194;49.480;10.986;2024-03-08T00:11:32;28.47;;;15.47;;
55350;SDS011;62194;49.480;10.986;2024-03-08T00:11:37;28.37;;;15.57;;
55350;SDS011;62194;49.480;10.986;2024-03-08T00:11:42;28.08;;;15.63;;
55350;SDS011;62194;49.480;10.986;2024-03-08T00:11:47;27.80;;;15.53;;
55350;SDS011;62194;49.480;10.986;2024-03-08T00:11:55;26.28;;;15.30;;
55350;SDS011;62194;49.480;10.986;2024-03-08T00:12:00;25.30;;;15.23;;
55350;SDS011;62194;49.480;10.986;2024-03-08T00:12:05;25.13;;;15.10;;
55350;SDS011;62194;49.480;10.986;2024-03-08T00:12:11;23.33;;;14.50;;
55350;SDS011;62194;49.480;10.986;2024-03-08T00:12:16;22.77;;;14.47;;
55350;SDS011;62194;49.480;10.986;2024-03-08T00:12:22;22.23;;;14.70;;
55350;SDS011;62194;49.480;10.986;2024-03-08T00:12:27;23.20;;;15.05;;
55350;SDS011;62194;49.480;10.986;2024-03-08T00:12:32;23.20;;;14.90;;
55350;SDS011;62194;49.480;10.986;2024-03-08T00:12:41;24.47;;;15.20;;
55350;SDS011;62194;49.480;10.986;2024-03-08T00:12:48;25.26;;;15.32;;
55350;SDS011;62194;49.480;10.986;2024-03-08T00:12:55;25.22;;;15.16;;
55350;SDS011;62194;49.480;10.986;2024-03-08T00:13:02;25.77;;;15.13;;
55350;SDS011;62194;49.480;10.986;2024-03-08T00:13:09;25.73;;;15.33;;
55350;SDS011;62194;49.480;10.986;2024-03-08T00:13:14;26.00;;;15.48;;
55350;SDS011;62194;49.480;10.986;2024-03-08T00:13:19;26.07;;;15.80;;
55350;SDS011;62194;49.480;10.986;2024-03-08T00:13:25;26.03;;;15.80;;
55350;SDS011;62194;49.480;10.986;2024-03-08T00:13:30;26.10;;;15.98;;
55350;SDS011;62194;49.480;10.986;2024-03-08T00:13:35;26.47;;;16.20;;
55350;SDS011;62194;49.480;10.986;2024-03-08T00:13:41;25.75;;;15.90;;
55350;SDS011;62194;49.480;10.986;2024-03-08T00:13:47;25.40;;;15.53;;
55350;SDS011;62194;49.480;10.986;2024-03-08T00:13:52;24.92;;;15.15;;
55350;SDS011;62194;49.480;10.986;2024-03-08T00:13:58;25.08;;;15.50;;
55350;SDS011;62194;49.480;10.986;2024-03-08T00:14:03;24.73;;;15.27;;
55350;SDS011;62194;49.480;10.986;2024-03-08T00:14:12;26.60;;;15.77;;
55350;SDS011;62194;49.480;10.986;2024-03-08T00:14:17;26.57;;;15.87;;
55350;SDS011;62194;49.480;10.986;2024-03-08T00:14:23;27.23;;;15.90;;
55350;SDS011;62194;49.480;10.986;2024-03-08T00:14:28;27.17;;;15.57;;
55350;SDS011;62194;49.480;10.986;2024-03-08T00:14:33;26.87;;;15.70;;
55350;SDS011;62194;49.480;10.986;2024-03-08T00:14:40;26.53;;;15.70;;
55350;SDS011;62194;49.480;10.986;2024-03-08T00:14:45;26.97;;;15.67;;
55350;SDS011;62194;49.480;10.986;2024-03-08T00:14:50;27.07;;;15.63;;
55350;SDS011;62194;49.480;10.986;2024-03-08T00:14:55;26.90;;;15.63;;
55350;SDS011;62194;49.480;10.986;2024-03-08T00:15:01;26.77;;;15.35;;
55350;SDS011;62194;49.480;10.986;2024-03-08T00:15:06;26.23;;;15.17;;
55350;SDS011;62194;49.480;10.986;2024-03-08T00:15:13;25.48;;;15.05;;
55350;SDS011;62194;49.480;10.986;2024-03-08T00:15:20;24.93;;;15.13;;
55350;SDS011;62194;49.480;10.986;2024-03-08T00:15:27;25.57;;;15.73;;
55350;SDS011;62194;49.480;10.986;2024-03-08T00:15:34;26.75;;;16.33;;
55350;SDS011;62194;49.480;10.986;2024-03-08T00:15:39;26.85;;;16.52;;
55350;SDS011;62194;49.480;10.986;2024-03-08T00:15:46;27.65;;;16.83;;
55350;SDS011;62194;49.480;10.986;2024-03-08T00:15:52;28.73;;;16.95;;
55350;SDS011;62194;49.480;10.986;2024-03-08T00:15:57;28.00;;;16.67;;
55350;SDS011;62194;49.480;10.986;2024-03-08T00:16:02;26.98;;;16.17;;
55350;SDS011;62194;49.480;10.986;2024-03-08T00:16:08;27.23;;;15.83;;
55350;SDS011;62194;49.480;10.986;2024-03-08T00:16:14;26.98;;;15.80;;
55350;SDS011;62194;49.480;10.986;2024-03-08T00:16:19;25.93;;;15.67;;
55350;SDS011;62194;49.480;10.986;2024-03-08T00:16:24;25.67;;;15.75;;
55350;SDS011;62194;49.480;10.986;2024-03-08T00:16:30;25.47;;;15.63;;
55350;SDS011;62194;49.480;10.986;2024-03-08T00:16:35;25.13;;;15.77;;
55350;SDS011;62194;49.480;10.986;2024-03-08T00:16:40;24.20;;;15.65;;
55350;SDS011;62194;49.480;10.986;2024-03-08T00:16:48;24.45;;;15.40;;
55350;SDS011;62194;49.480;10.986;2024-03-08T00:16:54;23.53;;;15.03;;
55350;SDS011;62194;49.480;10.986;2024-03-08T00:16:59;23.93;;;15.40;;
55350;SDS011;62194;49.480;10.986;2024-03-08T00:17:04;24.02;;;15.55;;
55350;SDS011;62194;49.480;10.986;2024-03-08T00:17:09;24.70;;;15.77;;
55350;SDS011;62194;49.480;10.986;2024-03-08T00:17:15;25.37;;;15.90;;
55350;SDS011;62194;49.480;10.986;2024-03-08T00:17:21;25.15;;;15.95;;
55350;SDS011;62194;49.480;10.986;2024-03-08T00:17:30;26.10;;;15.87;;
55350;SDS011;62194;49.480;10.986;2024-03-08T00:17:36;26.63;;;15.70;;
55350;SDS011;62194;49.480;10.986;2024-03-08T00:17:41;25.80;;;15.55;;
55350;SDS011;62194;49.480;10.986;2024-03-08T00:17:48;24.93;;;15.47;;
55350;SDS011;62194;49.480;10.986;2024-03-08T00:17:53;24.85;;;15.52;;
55350;SDS011;62194;49.480;10.986;2024-03-08T00:17:58;23.83;;;15.37;;
55350;SDS011;62194;49.480;10.986;2024-03-08T00:18:04;23.23;;;15.37;;
55350;SDS011;62194;49.480;10.986;2024-03-08T00:18:09;22.90;;;15.40;;
55350;SDS011;62194;49.480;10.986;2024-03-08T00:18:16;23.47;;;15.93;;
55350;SDS011;62194;49.480;10.986;2024-03-08T00:18:21;24.17;;;16.10;;
55350;SDS011;62194;49.480;10.986;2024-03-08T00:18:27;26.50;;;16.60;;
55350;SDS011;62194;49.480;10.986;2024-03-08T00:18:32;26.33;;;16.73;;
55350;SDS011;62194;49.480;10.986;2024-03-08T00:18:37;26.33;;;16.63;;
55350;SDS011;62194;49.480;10.986;2024-03-08T00:18:43;27.00;;;16.37;;
55350;SDS011;62194;49.480;10.986;2024-03-08T00:18:48;27.20;;;16.17;;
55350;SDS011;62194;49.480;10.986;2024-03-08T00:18:54;25.77;;;15.85;;
55350;SDS011;62194;49.480;10.986;2024-03-08T00:18:59;25.97;;;15.73;;
55350;SDS011;62194;49.480;10.986;2024-03-08T00:19:04;26.77;;;15.80;;
55350;SDS011;62194;49.480;10.986;2024-03-08T00:19:10;27.23;;;16.23;;
55350;SDS011;62194;49.480;10.986;2024-03-08T00:19:15;26.63;;;16.17;;
55350;SDS011;62194;49.480;10.986;2024-03-08T00:19:20;27.40;;;16.13;;
55350;SDS011;62194;49.480;10.986;2024-03-08T00:19:25;27.43;;;16.17;;
55350;SDS011;62194;49.480;10.986;2024-03-08T00:19:31;27.05;;;16.10;;
55350;SDS011;62194;49.480;10.986;2024-03-08T00:19:36;27.20;;;16.10;;
55350;SDS011;62194;49.480;10.986;2024-03-08T00:19:41;26.60;;;15.77;;
55350;SDS011;62194;49.480;10.986;2024-03-08T00:19:47;26.20;;;15.95;;
55350;SDS011;62194;49.480;10.986;2024-03-08T00:19:52;25.03;;;15.83;;
55350;SDS011;62194;49.480;10.986;2024-03-08T00:19:57;24.17;;;15.63;;
55350;SDS011;62194;49.480;10.986;2024-03-08T00:20:03;23.88;;;15.50;;
55350;SDS011;62194;49.480;10.986;2024-03-08T00:20:13;22.76;;;14.96;;
55350;SDS011;62194;49.480;10.986;2024-03-08T00:20:18;23.07;;;14.50;;
55350;SDS011;62194;49.480;10.986;2024-03-08T00:20:23;24.03;;;14.67;;
55350;SDS011;62194;49.480;10.986;2024-03-08T00:20:29;24.08;;;14.75;;
55350;SDS011;62194;49.480;10.986;2024-03-08T00:20:34;24.20;;;14.90;;
55350;SDS011;62194;49.480;10.986;2024-03-08T00:20:39;25.33;;;15.37;;
55350;SDS011;62194;49.480;10.986;2024-03-08T00:20:44;26.10;;;15.75;;
55350;SDS011;62194;49.480;10.986;2024-03-08T00:20:50;25.47;;;16.10;;
55350;SDS011;62194;49.480;10.986;2024-03-08T00:20:55;25.20;;;16.15;;
55350;SDS011;62194;49.480;10.986;2024-03-08T00:21:01;26.20;;;16.30;;
55350;SDS011;62194;49.480;10.986;2024-03-08T00:21:06;25.43;;;16.20;;
55350;SDS011;62194;49.480;10.986;2024-03-08T00:21:14;24.77;;;16.40;;
55350;SDS011;62194;49.480;10.986;2024-03-08T00:21:20;25.23;;;16.35;;
55350;SDS011;62194;49.480;10.986;2024-03-08T00:21:25;26.00;;;16.27;;
55350;SDS011;62194;49.480;10.986;2024-03-08T00:21:31;25.70;;;16.46;;
55350;SDS011;62194;49.480;10.986;2024-03-08T00:21:37;25.70;;;16.47;;
55350;SDS011;62194;49.480;10.986;2024-03-08T00:21:42;26.77;;;16.27;;
55350;SDS011;62194;49.480;10.986;2024-03-08T00:21:47;26.33;;;16.13;;
55350;SDS011;62194;49.480;10.986;2024-03-08T00:21:52;25.67;;;16.02;;
55350;SDS011;62194;49.480;10.986;2024-03-08T00:21:58;25.87;;;15.90;;
55350;SDS011;62194;49.480;10.986;2024-03-08T00:22:03;26.50;;;15.53;;
55350;SDS011;62194;49.480;10.986;2024-03-08T00:22:08;26.67;;;15.68;;
55350;SDS011;62194;49.480;10.986;2024-03-08T00:22:15;25.90;;;15.63;;
55350;SDS011;62194;49.480;10.986;2024-03-08T00:22:21;26.07;;;15.70;;
55350;SDS011;62194;49.480;10.986;2024-03-08T00:22:27;26.88;;;15.95;;
55350;SDS011;62194;49.480;10.986;2024-03-08T00:22:32;26.40;;;16.27;;
55350;SDS011;62194;49.480;10.986;2024-03-08T00:22:37;26.08;;;16.17;;
55350;SDS011;62194;49.480;10.986;2024-03-08T00:22:43;26.52;;;16.55;;
55350;SDS011;62194;49.480;10.986;2024-03-08T00:22:49;26.67;;;16.50;;
55350;SDS011;62194;49.480;10.986;2024-03-08T00:22:54;25.73;;;16.17;;
55350;SDS011;62194;49.480;10.986;2024-03-08T00:23:02;25.09;;;15.69;;
55350;SDS011;62194;49.480;10.986;2024-03-08T00:23:08;24.87;;;15.67;;
55350;SDS011;62194;49.480;10.986;2024-03-08T00:23:13;24.77;;;15.35;;
55350;SDS011;62194;49.480;10.986;2024-03-08T00:23:20;24.86;;;15.34;;
55350;SDS011;62194;49.480;10.986;2024-03-08T00:23:25;25.00;;;15.47;;
55350;SDS011;62194;49.480;10.986;2024-03-08T00:23:31;25.33;;;15.53;;
55350;SDS011;62194;49.480;10.986;2024-03-08T00:23:38;26.36;;;15.68;;
55350;SDS011;62194;49.480;10.986;2024-03-08T00:23:44;25.38;;;15.42;;
55350;SDS011;62194;49.480;10.986;2024-03-08T00:23:49;25.63;;;15.63;;
55350;SDS011;62194;49.480;10.986;2024-03-08T00:23:55;25.40;;;15.47;;
55350;SDS011;62194;49.480;10.986;2024-03-08T00:24:00;25.15;;;15.30;;
55350;SDS011;62194;49.480;10.986;2024-03-08T00:24:05;24.10;;;15.07;;
55350;SDS011;62194;49.480;10.986;2024-03-08T00:24:11;24.33;;;15.03;;
55350;SDS011;62194;49.480;10.986;2024-03-08T00:24:17;25.27;;;15.00;;
55350;SDS011;62194;49.480;10.986;2024-03-08T00:24:22;25.20;;;14.85;;
55350;SDS011;62194;49.480;10.986;2024-03-08T00:24:30;24.83;;;14.90;;
55350;SDS011;62194;49.480;10.986;2024-03-08T00:24:35;24.77;;;14.73;;
55350;SDS011;62194;49.480;10.986;2024-03-08T00:24:42;25.17;;;14.73;;
55350;SDS011;62194;49.480;10.986;2024-03-08T00:24:48;23.47;;;14.47;;
55350;SDS011;62194;49.480;10.986;2024-03-08T00:24:55;23.20;;;14.62;;
55350;SDS011;62194;49.480;10.986;2024-03-08T00:25:00;23.20;;;14.57;;
55350;SDS011;62194;49.480;10.986;2024-03-08T00:25:07;23.48;;;14.78;;
55350;SDS011;62194;49.480;10.986;2024-03-08T00:25:16;23.31;;;14.86;;
55350;SDS011;62194;49.480;10.986;2024-03-08T00:25:22;24.93;;;15.23;;
55350;SDS011;62194;49.480;10.986;2024-03-08T00:25:28;25.63;;;15.50;;
55350;SDS011;62194;49.480;10.986;2024-03-08T00:25:33;25.43;;;15.60;;
55350;SDS011;62194;49.480;10.986;2024-03-08T00:25:39;25.77;;;15.80;;
55350;SDS011;62194;49.480;10.986;2024-03-08T00:25:44;27.33;;;15.93;;
55350;SDS011;62194;49.480;10.986;2024-03-08T00:25:49;26.60;;;15.53;;
55350;SDS011;62194;49.480;10.986;2024-03-08T00:25:54;25.70;;;15.30;;
55350;SDS011;62194;49.480;10.986;2024-03-08T00:26:00;24.67;;;15.17;;
55350;SDS011;62194;49.480;10.986;2024-03-08T00:26:06;24.55;;;15.15;;
55350;SDS011;62194;49.480;10.986;2024-03-08T00:26:11;24.27;;;15.37;;
55350;SDS011;62194;49.480;10.986;2024-03-08T00:26:16;24.33;;;15.60;;
55350;SDS011;62194;49.480;10.986;2024-03-08T00:26:22;25.75;;;15.77;;
55350;SDS011;62194;49.480;10.986;2024-03-08T00:26:27;27.37;;;15.77;;
55350;SDS011;62194;49.480;10.986;2024-03-08T00:26:33;28.13;;;15.80;;
55350;SDS011;62194;49.480;10.986;2024-03-08T00:26:39;27.98;;;15.60;;
55350;SDS011;62194;49.480;10.986;2024-03-08T00:26:44;27.50;;;15.47;;
55350;SDS011;62194;49.480;10.986;2024-03-08T00:26:49;26.40;;;15.23;;
55350;SDS011;62194;49.480;10.986;2024-03-08T00:26:54;25.53;;;15.30;;
55350;SDS011;62194;49.480;10.986;2024-03-08T00:27:00;24.38;;;15.10;;
55350;SDS011;62194;49.480;10.986;2024-03-08T00:27:05;24.60;;;15.17;;
55350;SDS011;62194;49.480;10.986;2024-03-08T00:27:11;23.90;;;14.98;;
55350;SDS011;62194;49.480;10.986;2024-03-08T00:27:16;23.50;;;15.07;;
55350;SDS011;62194;49.480;10.986;2024-03-08T00:27:21;23.17;;;14.75;;
55350;SDS011;62194;49.480;10.986;2024-03-08T00:27:27;23.20;;;15.00;;
55350;SDS011;62194;49.480;10.986;2024-03-08T00:27:32;23.03;;;15.20;;
55350;SDS011;62194;49.480;10.986;2024-03-08T00:27:37;22.87;;;15.27;;
55350;SDS011;62194;49.480;10.986;2024-03-08T00:27:46;24.06;;;15.27;;
55350;SDS011;62194;49.480;10.986;2024-03-08T00:27:54;25.45;;;15.60;;
55350;SDS011;62194;49.480;10.986;2024-03-08T00:28:00;25.74;;;15.32;;
55350;SDS011;62194;49.480;10.986;2024-03-08T00:28:06;25.67;;;15.20;;
55350;SDS011;62194;49.480;10.986;2024-03-08T00:28:11;25.43;;;15.33;;
55350;SDS011;62194;49.480;10.986;2024-03-08T00:28:19;24.61;;;15.19;;
55350;SDS011;62194;49.480;10.986;2024-03-08T00:28:25;24.03;;;15.03;;
55350;SDS011;62194;49.480;10.986;2024-03-08T00:28:32;24.44;;;14.96;;
55350;SDS011;62194;49.480;10.986;2024-03-08T00:28:39;25.10;;;15.10;;
55350;SDS011;62194;49.480;10.986;2024-03-08T00:28:44;25.42;;;15.05;;
55350;SDS011;62194;49.480;10.986;2024-03-08T00:28:49;23.83;;;14.67;;
55350;SDS011;62194;49.480;10.986;2024-03-08T00:28:55;24.03;;;14.77;;
55350;SDS011;62194;49.480;10.986;2024-03-08T00:29:00;24.73;;;15.05;;
55350;SDS011;62194;49.480;10.986;2024-03-08T00:29:05;24.77;;;14.77;;
55350;SDS011;62194;49.480;10.986;2024-03-08T00:29:12;24.43;;;14.63;;
55350;SDS011;62194;49.480;10.986;2024-03-08T00:29:18;25.57;;;15.07;;
55350;SDS011;62194;49.480;10.986;2024-03-08T00:29:23;25.77;;;15.03;;
55350;SDS011;62194;49.480;10.986;2024-03-08T00:29:28;25.33;;;14.85;;
55350;SDS011;62194;49.480;10.986;2024-03-08T00:29:34;25.93;;;14.97;;
55350;SDS011;62194;49.480;10.986;2024-03-08T00:29:39;25.63;;;14.82;;
55350;SDS011;62194;49.480;10.986;2024-03-08T00:29:44;24.50;;;14.70;;
55350;SDS011;62194;49.480;10.986;2024-03-08T00:29:50;24.30;;;14.67;;
55350;SDS011;62194;49.480;10.986;2024-03-08T00:29:55;24.17;;;14.95;;
55350;SDS011;62194;49.480;10.986;2024-03-08T00:30:00;24.10;;;15.17;;
55350;SDS011;62194;49.480;10.986;2024-03-08T00:30:06;23.03;;;15.17;;
55350;SDS011;62194;49.480;10.986;2024-03-08T00:30:12;24.16;;;15.32;;
55350;SDS011;62194;49.480;10.986;2024-03-08T00:30:18;24.57;;;15.57;;
55350;SDS011;62194;49.480;10.986;2024-03-08T00:30:23;24.60;;;15.38;;
55350;SDS011;62194;49.480;10.986;2024-03-08T00:30:30;24.33;;;15.05;;
55350;SDS011;62194;49.480;10.986;2024-03-08T00:30:36;24.52;;;14.98;;
55350;SDS011;62194;49.480;10.986;2024-03-08T00:30:42;23.54;;;14.64;;
55350;SDS011;62194;49.480;10.986;2024-03-08T00:30:48;22.47;;;14.27;;
55350;SDS011;62194;49.480;10.986;2024-03-08T00:30:53;22.65;;;14.40;;
55350;SDS011;62194;49.480;10.986;2024-03-08T00:30:58;22.87;;;14.60;;
55350;SDS011;62194;49.480;10.986;2024-03-08T00:31:03;23.43;;;14.67;;
55350;SDS011;62194;49.480;10.986;2024-03-08T00:31:09;23.27;;;14.95;;
55350;SDS011;62194;49.480;10.986;2024-03-08T00:31:14;24.03;;;15.40;;
55350;SDS011;62194;49.480;10.986;2024-03-08T00:31:21;24.46;;;15.76;;
55350;SDS011;62194;49.480;10.986;2024-03-08T00:31:27;24.25;;;15.88;;
55350;SDS011;62194;49.480;10.986;2024-03-08T00:31:33;23.25;;;15.52;;
55350;SDS011;62194;49.480;10.986;2024-03-08T00:31:38;24.30;;;15.30;;
55350;SDS011;62194;49.480;10.986;2024-03-08T00:31:43;24.67;;;15.00;;
55350;SDS011;62194;49.480;10.986;2024-03-08T00:31:49;25.42;;;15.05;;
55350;SDS011;62194;49.480;10.986;2024-03-08T00:31:54;25.50;;;14.70;;
55350;SDS011;62194;49.480;10.986;2024-03-08T00:31:59;26.40;;;14.87;;
55350;SDS011;62194;49.480;10.986;2024-03-08T00:32:04;27.47;;;15.30;;
55350;SDS011;62194;49.480;10.986;2024-03-08T00:32:10;27.23;;;15.73;;
55350;SDS011;62194;49.480;10.986;2024-03-08T00:32:16;26.20;;;15.57;;
55350;SDS011;62194;49.480;10.986;2024-03-08T00:32:22;25.58;;;15.45;;
55350;SDS011;62194;49.480;10.986;2024-03-08T00:32:29;26.23;;;15.93;;
55350;SDS011;62194;49.480;10.986;2024-03-08T00:32:36;25.73;;;15.80;;
55350;SDS011;62194;49.480;10.986;2024-03-08T00:32:42;26.20;;;15.68;;
55350;SDS011;62194;49.480;10.986;2024-03-08T00:32:48;27.13;;;16.05;;
55350;SDS011;62194;49.480;10.986;2024-03-08T00:32:53;27.35;;;16.30;;
55350;SDS011;62194;49.480;10.986;2024-03-08T00:32:59;26.10;;;16.00;;
55350;SDS011;62194;49.480;10.986;2024-03-08T00:33:04;25.67;;;15.83;;